Time;durP1;ratioP1;P1;durP2;ratioP2;P2;SDS_P1;SDS_P2;PMS_P1;PMS_P2;Temp;Humidity;BMP_temperature;BMP_pressure;BME280_temperature;BME280_humidity;BME280_pressure;Samples;Min_cycle;Max_cycle;Signal;HPM_P1;HPM_P2
2023/02/25 00:01:44;;;;;;;;;;;;;;;4.83;99.90;96226.82;110200;1242;59798;-71
2023/02/25 00:04:30;;;;;;;;;;;;;;;4.80;100.00;96225.27;110329;1241;71801;-71
2023/02/25 00:06:59;;;;;;;;;;;;;;;4.79;100.00;96220.50;110177;1242;69250;-71
2023/02/25 00:09:29;;;;;;;;;;;;;;;4.79;100.00;96217.71;110274;1241;69904;-71
2023/02/25 00:11:58;;;;;;;;;;;;;;;4.81;100.00;96215.92;110191;1240;59815;-71
2023/02/25 00:14:27;;;;;;;;;;;;;;;4.81;100.00;96213.81;110348;1242;59690;-71
2023/02/25 00:16:56;;;;;;;;;;;;;;;4.82;100.00;96211.14;110178;1242;71993;-71
2023/02/25 00:19:25;;;;;;;;;;;;;;;4.83;100.00;96199.18;110291;1242;69828;-71
2023/02/25 00:21:54;;;;;;;;;;;;;;;4.85;100.00;96197.69;110346;1242;69093;-71
2023/02/25 00:24:23;;;;;;;;;;;;;;;4.86;100.00;96195.85;110199;1242;59769;-71
2023/02/25 00:26:52;;;;;;;;;;;;;;;4.88;98.67;96193.00;110354;1242;59693;-71
2023/02/25 00:29:21;;;;;;;;;;;;;;;4.90;96.30;96179.75;110160;1242;71136;-71
2023/02/25 00:31:50;;;;;;;;;;;;;;;4.90;96.67;96175.42;110346;1242;68887;-71
2023/02/25 00:34:20;;;;;;;;;;;;;;;4.90;95.87;96183.88;110330;1242;69314;-72
2023/02/25 00:36:49;;;;;;;;;;;;;;;4.89;97.74;96178.93;110197;1242;59740;-71
2023/02/25 00:39:18;;;;;;;;;;;;;;;4.88;99.51;96173.30;110376;1241;59640;-71
2023/02/25 00:41:48;;;;;;;;;;;;;;;4.87;96.42;96168.52;110297;1240;70608;-71
2023/02/25 00:44:18;;;;;;;;;;;;;;;4.84;99.77;96170.61;110137;1245;69275;-71
2023/02/25 00:46:47;;;;;;;;;;;;;;;4.82;100.00;96172.52;110217;1242;69914;-71
2023/02/25 00:49:17;;;;;;;;;;;;;;;4.81;100.00;96165.18;110261;1240;60156;-71
2023/02/25 00:52:00;;;;;;;;;;;;;;;4.78;100.00;96151.05;110326;1241;59711;-71
2023/02/25 00:54:29;;;;;;;;;;;;;;;4.77;99.42;96143.55;110212;1242;71214;-71
2023/02/25 00:56:58;;;;;;;;;;;;;;;4.75;99.44;96136.55;110268;1245;68509;-71
2023/02/25 00:59:28;;;;;;;;;;;;;;;4.74;100.00;96140.98;110179;1241;69260;-71
2023/02/25 01:01:56;;;;;;;;;;;;;;;4.71;100.00;96136.50;110358;1242;59678;-71
2023/02/25 01:04:26;;;;;;;;;;;;;;;4.68;100.00;96122.77;110157;1242;59635;-71
2023/02/25 01:06:55;;;;;;;;;;;;;;;4.65;100.00;96115.89;110320;1242;70926;-71
2023/02/25 01:09:24;;;;;;;;;;;;;;;4.63;100.00;96107.42;110146;1242;69112;-71
2023/02/25 01:11:54;;;;;;;;;;;;;;;4.63;100.00;96107.43;110100;1245;69268;-71
2023/02/25 01:14:24;;;;;;;;;;;;;;;4.62;100.00;96106.75;110294;1242;59699;-71
2023/02/25 01:16:56;;;;;;;;;;;;;;;4.62;100.00;96099.54;110334;1242;59727;-71
2023/02/25 01:19:27;;;;;;;;;;;;;;;4.63;100.00;96098.09;110348;1242;71248;-71
2023/02/25 01:21:57;;;;;;;;;;;;;;;4.63;100.00;96092.38;110248;1241;69257;-71
2023/02/25 01:24:28;;;;;;;;;;;;;;;4.65;100.00;96085.32;110175;1243;69663;-71
2023/02/25 01:26:59;;;;;;;;;;;;;;;4.65;99.97;96086.23;110343;1242;59699;-71
2023/02/25 01:29:33;;;;;;;;;;;;;;;4.65;99.15;96088.79;110339;1240;59747;-71
2023/02/25 01:32:03;;;;;;;;;;;;;;;4.64;99.72;96088.00;110223;1242;70463;-71
2023/02/25 01:34:32;;;;;;;;;;;;;;;4.62;100.00;96082.41;110265;1242;69257;-70
2023/02/25 01:37:03;;;;;;;;;;;;;;;4.60;99.93;96078.23;110207;1242;69832;-71
2023/02/25 01:39:33;;;;;;;;;;;;;;;4.59;99.31;96077.76;110195;1241;59731;-71
2023/02/25 01:42:11;;;;;;;;;;;;;;;4.58;99.98;96078.04;110347;1242;59712;-71
2023/02/25 01:45:00;;;;;;;;;;;;;;;4.57;99.86;96067.58;110207;1241;71369;-71
2023/02/25 01:47:31;;;;;;;;;;;;;;;4.56;99.97;96067.42;110359;1242;68256;-71
2023/02/25 01:50:04;;;;;;;;;;;;;;;4.56;99.92;96073.52;110360;1242;69071;-72
2023/02/25 01:52:33;;;;;;;;;;;;;;;4.54;100.00;96066.55;110248;1244;60143;-71
2023/02/25 01:55:04;;;;;;;;;;;;;;;4.53;100.00;96065.10;110219;1242;59704;-70
2023/02/25 01:57:35;;;;;;;;;;;;;;;4.50;100.00;96058.79;110124;1244;70578;-69
2023/02/25 02:00:15;;;;;;;;;;;;;;;4.47;100.00;96048.80;110146;1241;69212;-70
2023/02/25 02:02:46;;;;;;;;;;;;;;;4.45;100.00;96040.88;110336;1241;69405;-72
2023/02/25 02:05:16;;;;;;;;;;;;;;;4.43;100.00;96041.83;110249;1245;59734;-70
2023/02/25 02:07:47;;;;;;;;;;;;;;;4.42;100.00;96053.64;110313;1244;59679;-71
2023/02/25 02:10:18;;;;;;;;;;;;;;;4.41;100.00;96050.39;110373;1243;71412;-71
2023/02/25 02:12:49;;;;;;;;;;;;;;;4.40;100.00;96050.70;110305;1245;67381;-71
2023/02/25 02:15:19;;;;;;;;;;;;;;;4.39;100.00;96046.97;110240;1242;68362;-70
2023/02/25 02:17:56;;;;;;;;;;;;;;;4.39;100.00;96042.67;110267;1242;59681;-72
2023/02/25 02:20:29;;;;;;;;;;;;;;;4.38;100.00;96040.15;110353;1242;59642;-70
2023/02/25 02:23:29;;;;;;;;;;;;;;;4.39;100.00;96029.68;110221;1241;71286;-70
2023/02/25 02:26:17;;;;;;;;;;;;;;;4.41;100.00;96010.59;110231;1242;69800;-70
2023/02/25 02:28:53;;;;;;;;;;;;;;;4.41;100.00;96020.28;110384;1242;67877;-71
2023/02/25 02:31:38;;;;;;;;;;;;;;;4.39;100.00;96019.85;110352;1242;59737;-70
2023/02/25 02:34:19;;;;;;;;;;;;;;;4.38;100.00;96014.07;110161;1241;59677;-71
2023/02/25 02:36:55;;;;;;;;;;;;;;;4.36;100.00;96007.99;110229;1240;71992;-71
2023/02/25 02:39:28;;;;;;;;;;;;;;;4.35;100.00;96005.64;110164;1245;69246;-71
2023/02/25 02:42:20;;;;;;;;;;;;;;;4.35;100.00;96013.92;110353;1242;69069;-71
2023/02/25 02:44:57;;;;;;;;;;;;;;;4.35;100.00;96008.94;109919;1241;59738;-72
2023/02/25 02:47:31;;;;;;;;;;;;;;;4.36;100.00;96010.41;110339;1245;59646;-71
2023/02/25 02:50:05;;;;;;;;;;;;;;;4.37;100.00;96007.42;110396;1242;71711;-71
2023/02/25 02:52:38;;;;;;;;;;;;;;;4.38;100.00;95999.41;110275;1244;69099;-70
2023/02/25 02:55:21;;;;;;;;;;;;;;;4.40;100.00;95999.48;110178;1245;69322;-71
2023/02/25 02:57:55;;;;;;;;;;;;;;;4.41;100.00;95993.73;110275;1245;59718;-71
2023/02/25 03:00:29;;;;;;;;;;;;;;;4.43;100.00;95999.58;110192;1242;59686;-70
2023/02/25 03:03:07;;;;;;;;;;;;;;;4.44;100.00;95991.05;110166;1242;71312;-72
2023/02/25 03:05:40;;;;;;;;;;;;;;;4.47;100.00;95984.10;110229;1242;68329;-72
2023/02/25 03:08:13;;;;;;;;;;;;;;;4.50;100.00;95978.39;110351;1242;69266;-70
2023/02/25 03:10:44;;;;;;;;;;;;;;;4.53;99.99;95977.63;110174;1246;59743;-71
2023/02/25 03:13:14;;;;;;;;;;;;;;;4.54;100.00;95976.00;110264;1244;59691;-71
2023/02/25 03:15:45;;;;;;;;;;;;;;;4.55;100.00;95975.58;110239;1242;71439;-71
2023/02/25 03:18:22;;;;;;;;;;;;;;;4.55;100.00;95980.23;110311;1246;67399;-70
2023/02/25 03:20:55;;;;;;;;;;;;;;;4.55;100.00;95977.02;110204;1249;69289;-71
2023/02/25 03:23:30;;;;;;;;;;;;;;;4.53;100.00;95966.07;110184;1245;59736;-71
2023/02/25 03:26:12;;;;;;;;;;;;;;;4.53;100.00;95965.02;110333;1245;59657;-71
2023/02/25 03:28:44;;;;;;;;;;;;;;;4.53;100.00;95968.63;110275;1242;71385;-70
2023/02/25 03:31:20;;;;;;;;;;;;;;;4.52;100.00;95964.73;110373;1241;68552;-70
2023/02/25 03:34:00;;;;;;;;;;;;;;;4.50;100.00;95962.02;110251;1245;68361;-70
2023/02/25 03:36:45;;;;;;;;;;;;;;;4.45;100.00;95947.64;110166;1244;59753;-70
2023/02/25 03:39:18;;;;;;;;;;;;;;;4.44;100.00;95942.72;110154;1245;59698;-70
2023/02/25 03:41:51;;;;;;;;;;;;;;;4.44;100.00;95945.00;110220;1245;70695;-71
2023/02/25 03:44:31;;;;;;;;;;;;;;;4.43;100.00;95948.02;110258;1245;69259;-70
2023/02/25 03:47:03;;;;;;;;;;;;;;;4.40;100.00;95955.48;110121;1246;69151;-70
2023/02/25 03:49:37;;;;;;;;;;;;;;;4.34;100.00;95948.45;110128;1245;59728;-70
2023/02/25 03:52:12;;;;;;;;;;;;;;;4.27;100.00;95942.39;110110;1245;59675;-70
2023/02/25 03:54:41;;;;;;;;;;;;;;;4.22;100.00;95934.98;110148;1242;71849;-70
2023/02/25 03:57:11;;;;;;;;;;;;;;;4.21;100.00;95932.34;110032;1241;69675;-70
2023/02/25 03:59:41;;;;;;;;;;;;;;;4.21;100.00;95923.69;110241;1241;68397;-70
2023/02/25 04:02:13;;;;;;;;;;;;;;;4.23;100.00;95922.16;110161;1243;59712;-70
2023/02/25 04:04:44;;;;;;;;;;;;;;;4.24;100.00;95920.40;110134;1243;59734;-70
2023/02/25 04:07:13;;;;;;;;;;;;;;;4.25;100.00;95916.36;110275;1242;70246;-70
2023/02/25 04:09:43;;;;;;;;;;;;;;;4.24;100.00;95907.82;110267;1242;69263;-70
2023/02/25 04:12:14;;;;;;;;;;;;;;;4.23;100.00;95894.77;110195;1245;69347;-70
2023/02/25 04:14:44;;;;;;;;;;;;;;;4.21;100.00;95886.25;110120;1241;59767;-71
2023/02/25 04:17:15;;;;;;;;;;;;;;;4.19;100.00;95884.56;110113;1245;59680;-70
2023/02/25 04:19:44;;;;;;;;;;;;;;;4.15;100.00;95888.12;110167;1241;71974;-70
2023/02/25 04:22:15;;;;;;;;;;;;;;;4.08;100.00;95888.77;110094;1245;68388;-70
2023/02/25 04:24:44;;;;;;;;;;;;;;;4.02;100.00;95888.33;110159;1246;68749;-70
2023/02/25 04:27:14;;;;;;;;;;;;;;;3.96;100.00;95887.52;110254;1243;59686;-69
2023/02/25 04:29:44;;;;;;;;;;;;;;;3.90;100.00;95881.72;110142;1241;59737;-70
2023/02/25 04:32:13;;;;;;;;;;;;;;;3.84;100.00;95871.63;110182;1241;71385;-70
2023/02/25 04:34:43;;;;;;;;;;;;;;;3.79;100.00;95871.82;110202;1250;69216;-70
2023/02/25 04:37:12;;;;;;;;;;;;;;;3.73;100.00;95871.40;110150;1245;69106;-70
2023/02/25 04:39:42;;;;;;;;;;;;;;;3.68;100.00;95870.36;110170;1245;59731;-70
2023/02/25 04:42:12;;;;;;;;;;;;;;;3.64;100.00;95863.42;110341;1244;59678;-70
2023/02/25 04:44:42;;;;;;;;;;;;;;;3.59;100.00;95857.86;110209;1242;71699;-70
2023/02/25 04:47:12;;;;;;;;;;;;;;;3.57;100.00;95865.59;110213;1243;68057;-70
2023/02/25 04:49:45;;;;;;;;;;;;;;;3.54;100.00;95867.38;110188;1242;69314;-69
2023/02/25 04:52:15;;;;;;;;;;;;;;;3.49;100.00;95859.75;110154;1242;59701;-70
2023/02/25 04:54:44;;;;;;;;;;;;;;;3.50;100.00;95858.71;110149;1242;59624;-69
2023/02/25 04:57:14;;;;;;;;;;;;;;;3.52;100.00;95855.09;110179;1245;71575;-69
2023/02/25 04:59:44;;;;;;;;;;;;;;;3.60;100.00;95853.02;110159;1242;68487;-72
2023/02/25 05:02:14;;;;;;;;;;;;;;;3.69;100.00;95852.41;110181;1243;69261;-70
2023/02/25 05:04:43;;;;;;;;;;;;;;;3.78;100.00;95847.96;110193;1242;59747;-70
2023/02/25 05:07:14;;;;;;;;;;;;;;;3.97;100.00;95842.48;110178;1242;59734;-70
2023/02/25 05:09:43;;;;;;;;;;;;;;;4.10;100.00;95841.19;110166;1242;71400;-69
2023/02/25 05:12:12;;;;;;;;;;;;;;;4.19;100.00;95842.27;110186;1243;69137;-70
2023/02/25 05:14:42;;;;;;;;;;;;;;;4.30;100.00;95841.84;110247;1242;69255;-70
2023/02/25 05:17:12;;;;;;;;;;;;;;;4.38;100.00;95839.51;110211;1242;59670;-70
2023/02/25 05:19:41;;;;;;;;;;;;;;;4.45;100.00;95835.39;110316;1240;59763;-70
2023/02/25 05:22:12;;;;;;;;;;;;;;;4.52;100.00;95835.36;110194;1242;71409;-70
2023/02/25 05:24:41;;;;;;;;;;;;;;;4.61;100.00;95839.17;110199;1242;68548;-69
2023/02/25 05:27:10;;;;;;;;;;;;;;;4.66;100.00;95829.54;110216;1250;69382;-69
2023/02/25 05:29:39;;;;;;;;;;;;;;;4.73;100.00;95829.55;110186;1242;60266;-69
2023/02/25 05:32:09;;;;;;;;;;;;;;;4.80;100.00;95826.37;110216;1242;59786;-70
2023/02/25 05:34:40;;;;;;;;;;;;;;;4.87;100.00;95820.71;110242;1244;71394;-70
2023/02/25 05:37:09;;;;;;;;;;;;;;;4.94;99.96;95815.86;110165;1241;69447;-71
2023/02/25 05:39:38;;;;;;;;;;;;;;;5.01;99.73;95819.64;110246;1243;67673;-71
2023/02/25 05:42:07;;;;;;;;;;;;;;;5.06;99.65;95810.08;110461;1242;59686;-71
2023/02/25 05:44:36;;;;;;;;;;;;;;;5.12;99.26;95814.11;110258;1243;59750;-70
2023/02/25 05:47:06;;;;;;;;;;;;;;;5.19;98.90;95815.20;110424;1243;72051;-70
2023/02/25 05:49:35;;;;;;;;;;;;;;;5.25;98.62;95818.33;110363;1242;69218;-71
2023/02/25 05:52:05;;;;;;;;;;;;;;;5.30;98.22;95815.02;110229;1247;68692;-71
2023/02/25 05:54:33;;;;;;;;;;;;;;;5.37;97.32;95814.81;110211;1241;59767;-70
2023/02/25 05:57:02;;;;;;;;;;;;;;;5.49;95.90;95814.22;110382;1242;59767;-71
2023/02/25 05:59:30;;;;;;;;;;;;;;;5.68;93.88;95809.48;110218;1242;71353;-71
2023/02/25 06:01:59;;;;;;;;;;;;;;;5.77;94.14;95816.57;110366;1242;68736;-71
2023/02/25 06:04:27;;;;;;;;;;;;;;;5.81;94.56;95815.14;110294;1242;69280;-71
2023/02/25 06:06:56;;;;;;;;;;;;;;;5.86;96.01;95818.55;110175;1243;59711;-70
2023/02/25 06:09:26;;;;;;;;;;;;;;;5.92;95.10;95811.52;110397;1243;59631;-71
2023/02/25 06:11:54;;;;;;;;;;;;;;;5.98;94.07;95810.20;110382;1240;72027;-71
2023/02/25 06:14:23;;;;;;;;;;;;;;;6.03;93.59;95805.83;110205;1242;69094;-71
2023/02/25 06:16:55;;;;;;;;;;;;;;;6.09;93.83;95804.33;110358;1242;69859;-71
2023/02/25 06:19:25;;;;;;;;;;;;;;;6.15;92.25;95805.23;110219;1242;59954;-70
2023/02/25 06:21:54;;;;;;;;;;;;;;;6.23;92.06;95795.25;110154;1249;59634;-71
2023/02/25 06:24:23;;;;;;;;;;;;;;;6.41;90.65;95795.21;110200;1240;71942;-71
2023/02/25 06:26:52;;;;;;;;;;;;;;;6.52;89.48;95793.39;110248;1243;68443;-70
2023/02/25 06:29:21;;;;;;;;;;;;;;;6.61;88.46;95785.33;110196;1241;70066;-71
2023/02/25 06:31:49;;;;;;;;;;;;;;;6.73;87.38;95779.20;110318;1241;60078;-71
2023/02/25 06:34:18;;;;;;;;;;;;;;;6.79;88.30;95785.25;110190;1240;59693;-71
2023/02/25 06:36:47;;;;;;;;;;;;;;;6.82;88.52;95784.50;110368;1243;71788;-71
2023/02/25 06:39:15;;;;;;;;;;;;;;;6.86;87.53;95791.11;110204;1242;68076;-71
2023/02/25 06:41:44;;;;;;;;;;;;;;;6.89;88.22;95785.13;110333;1241;69607;-71
2023/02/25 06:44:13;;;;;;;;;;;;;;;6.91;88.59;95777.02;110327;1242;59744;-71
2023/02/25 06:46:43;;;;;;;;;;;;;;;6.93;88.86;95775.97;110234;1243;59715;-71
2023/02/25 06:49:11;;;;;;;;;;;;;;;6.92;89.18;95768.91;110342;1241;71971;-70
2023/02/25 06:51:40;;;;;;;;;;;;;;;6.94;89.70;95763.45;110216;1249;68125;-71
2023/02/25 06:54:09;;;;;;;;;;;;;;;6.93;89.05;95763.50;110329;1243;69102;-71
2023/02/25 06:56:37;;;;;;;;;;;;;;;6.92;87.84;95760.98;110311;1242;59741;-71
2023/02/25 06:59:05;;;;;;;;;;;;;;;6.94;87.29;95755.27;110340;1241;59705;-71
2023/02/25 07:01:35;;;;;;;;;;;;;;;6.99;86.59;95750.00;110156;1243;71516;-71
2023/02/25 07:04:04;;;;;;;;;;;;;;;7.02;85.34;95755.98;110360;1241;68252;-71
2023/02/25 07:06:33;;;;;;;;;;;;;;;7.03;85.43;95756.56;110162;1242;69139;-70
2023/02/25 07:09:01;;;;;;;;;;;;;;;7.05;85.41;95743.44;110287;1241;59599;-70
2023/02/25 07:11:32;;;;;;;;;;;;;;;7.06;84.87;95738.46;110309;1242;59714;-71
2023/02/25 07:14:02;;;;;;;;;;;;;;;7.09;84.91;95734.23;110315;1242;71444;-69
2023/02/25 07:16:33;;;;;;;;;;;;;;;7.13;84.72;95735.81;110199;1244;69215;-70
2023/02/25 07:19:01;;;;;;;;;;;;;;;7.19;85.53;95740.35;110211;1241;69878;-69
2023/02/25 07:21:30;;;;;;;;;;;;;;;7.24;87.00;95737.27;110241;1241;59740;-69
2023/02/25 07:23:58;;;;;;;;;;;;;;;7.27;87.60;95737.86;110180;1242;59731;-69
2023/02/25 07:26:27;;;;;;;;;;;;;;;7.34;88.19;95735.37;110208;1242;71244;-70
2023/02/25 07:28:59;;;;;;;;;;;;;;;7.36;89.20;95733.95;110217;1242;68584;-69
2023/02/25 07:31:28;;;;;;;;;;;;;;;7.36;88.43;95735.54;110210;1242;69242;-69
2023/02/25 07:34:02;;;;;;;;;;;;;;;7.36;87.85;95733.33;110218;1242;59724;-69
2023/02/25 07:36:32;;;;;;;;;;;;;;;7.36;87.64;95731.77;110200;1242;59692;-69
2023/02/25 07:39:03;;;;;;;;;;;;;;;7.35;88.07;95730.45;110218;1240;71906;-69
2023/02/25 07:41:31;;;;;;;;;;;;;;;7.35;87.34;95729.27;110193;1241;69254;-69
2023/02/25 07:44:03;;;;;;;;;;;;;;;7.36;87.07;95726.15;110092;1245;67335;-69
2023/02/25 07:46:32;;;;;;;;;;;;;;;7.37;86.79;95724.05;109948;1242;360455;-69
2023/02/25 07:49:01;;;;;;;;;;;;;;;7.42;87.64;95722.23;110266;1242;59666;-69
2023/02/25 07:51:30;;;;;;;;;;;;;;;7.46;86.22;95719.80;110307;1242;71442;-69
2023/02/25 07:53:59;;;;;;;;;;;;;;;7.48;85.40;95717.39;110149;1241;68998;-69
2023/02/25 07:56:29;;;;;;;;;;;;;;;7.53;85.78;95712.55;110185;1243;69273;-69
2023/02/25 07:58:58;;;;;;;;;;;;;;;7.57;84.28;95707.70;110221;1242;59695;-69
2023/02/25 08:01:29;;;;;;;;;;;;;;;7.62;83.67;95702.72;110256;1241;59694;-69
2023/02/25 08:03:59;;;;;;;;;;;;;;;7.67;83.69;95698.34;110209;1243;71845;-69
2023/02/25 08:06:28;;;;;;;;;;;;;;;7.72;83.01;95697.95;110232;1241;69230;-69
2023/02/25 08:08:57;;;;;;;;;;;;;;;7.76;82.65;95693.06;110189;1243;69093;-69
2023/02/25 08:11:26;;;;;;;;;;;;;;;7.83;82.04;95684.09;110214;1242;59737;-69
2023/02/25 08:13:54;;;;;;;;;;;;;;;7.89;82.53;95682.52;110209;1242;59698;-70
2023/02/25 08:16:23;;;;;;;;;;;;;;;7.93;81.97;95687.94;110337;1249;70577;-69
2023/02/25 08:18:52;;;;;;;;;;;;;;;8.03;80.03;95684.23;110220;1242;69853;-68
2023/02/25 08:21:22;;;;;;;;;;;;;;;8.08;79.98;95682.92;110188;1243;68531;-70
2023/02/25 08:23:52;;;;;;;;;;;;;;;8.08;79.71;95673.88;110256;1242;59678;-69
2023/02/25 08:26:21;;;;;;;;;;;;;;;8.18;78.82;95673.02;110287;1242;59728;-69
2023/02/25 08:28:50;;;;;;;;;;;;;;;8.30;77.70;95665.75;110277;1240;71290;-69
2023/02/25 08:31:19;;;;;;;;;;;;;;;8.35;78.40;95661.34;110242;1242;69445;-69
2023/02/25 08:33:52;;;;;;;;;;;;;;;8.56;76.66;95663.42;110275;1242;68376;-70
2023/02/25 08:36:22;;;;;;;;;;;;;;;8.94;74.39;95656.27;110199;1242;60046;-70
2023/02/25 08:38:51;;;;;;;;;;;;;;;9.23;73.55;95652.28;110244;1249;59698;-70
2023/02/25 08:41:20;;;;;;;;;;;;;;;9.54;71.81;95649.34;110255;1241;71655;-70
2023/02/25 08:43:54;;;;;;;;;;;;;;;9.81;70.75;95645.12;110191;1244;69036;-71
2023/02/25 08:46:25;;;;;;;;;;;;;;;10.08;70.24;95642.27;110111;1244;69077;-69
2023/02/25 08:48:54;;;;;;;;;;;;;;;10.44;68.90;95645.06;110317;1243;59747;-69
2023/02/25 08:51:24;;;;;;;;;;;;;;;10.60;67.76;95643.08;110299;1242;59672;-69
2023/02/25 08:53:52;;;;;;;;;;;;;;;10.66;66.91;95644.36;110249;1242;71244;-70
2023/02/25 08:56:21;;;;;;;;;;;;;;;10.70;66.73;95646.24;110369;1242;69582;-69
2023/02/25 08:58:49;;;;;;;;;;;;;;;10.73;66.48;95644.68;110167;1242;69575;-68
2023/02/25 09:01:18;;;;;;;;;;;;;;;10.66;66.42;95646.96;110183;1242;59737;-69
2023/02/25 09:03:51;;;;;;;;;;;;;;;10.71;65.57;95649.08;110226;1243;59630;-69
2023/02/25 09:06:22;;;;;;;;;;;;;;;10.84;65.31;95638.21;110197;1242;71296;-69
2023/02/25 09:08:51;;;;;;;;;;;;;;;11.08;64.56;95639.94;110372;1241;69103;-69
2023/02/25 09:11:20;;;;;;;;;;;;;;;11.27;64.54;95630.47;110135;1243;69342;-69
2023/02/25 09:13:50;;;;;;;;;;;;;;;11.49;63.70;95630.98;110244;1245;59633;-70
2023/02/25 09:16:19;;;;;;;;;;;;;;;11.82;62.15;95624.71;110237;1241;59750;-69
2023/02/25 09:18:50;;;;;;;;;;;;;;;11.97;62.14;95622.20;110228;1240;71228;-70
2023/02/25 09:21:19;;;;;;;;;;;;;;;12.00;61.57;95613.60;110208;1242;69629;-69
2023/02/25 09:23:50;;;;;;;;;;;;;;;11.93;61.74;95611.87;110245;1241;68797;-70
2023/02/25 09:26:19;;;;;;;;;;;;;;;11.68;61.97;95607.86;110320;1240;59666;-70
2023/02/25 09:28:48;;;;;;;;;;;;;;;11.36;62.91;95603.54;110407;1241;59627;-70
2023/02/25 09:31:17;;;;;;;;;;;;;;;11.21;63.90;95592.52;110341;1240;71806;-68
2023/02/25 09:33:46;;;;;;;;;;;;;;;11.04;63.63;95592.09;110213;1242;69563;-69
2023/02/25 09:36:16;;;;;;;;;;;;;;;10.91;64.05;95596.75;110238;1243;69864;-69
2023/02/25 09:38:45;;;;;;;;;;;;;;;10.86;64.46;95595.98;110225;1242;60009;-69
2023/02/25 09:41:46;;;;;;;;;;;;;;;10.85;65.20;95594.23;110206;1242;59699;-70
2023/02/25 09:44:36;;;;;;;;;;;;;;;10.90;64.71;95591.08;109867;1240;72366;-70
2023/02/25 09:47:11;;;;;;;;;;;;;;;10.91;63.86;95587.98;110203;1240;69507;-69
2023/02/25 09:49:43;;;;;;;;;;;;;;;10.86;63.04;95591.81;110208;1242;69287;-69
2023/02/25 09:52:25;;;;;;;;;;;;;;;10.82;63.07;95581.58;110123;1240;59617;-71
2023/02/25 09:54:55;;;;;;;;;;;;;;;10.71;63.05;95584.11;110187;1242;59653;-69
2023/02/25 09:57:24;;;;;;;;;;;;;;;10.64;63.13;95575.87;110216;1242;71254;-70
2023/02/25 09:59:52;;;;;;;;;;;;;;;10.57;63.82;95577.35;110416;1242;69328;-71
2023/02/25 10:02:56;;;;;;;;;;;;;;;10.49;64.52;95577.96;110238;1245;69145;-70
2023/02/25 10:05:38;;;;;;;;;;;;;;;10.42;65.91;95573.84;109293;1251;60116;-72
2023/02/25 10:08:21;;;;;;;;;;;;;;;10.39;65.79;95570.13;110131;1243;59682;-71
2023/02/25 10:10:57;;;;;;;;;;;;;;;10.39;66.78;95567.02;110358;1242;71203;-70
2023/02/25 10:13:31;;;;;;;;;;;;;;;10.21;68.36;95566.86;110388;1243;68256;-70
2023/02/25 10:16:15;;;;;;;;;;;;;;;10.14;68.91;95564.38;110232;1243;68134;-69
2023/02/25 10:19:02;;;;;;;;;;;;;;;10.01;71.28;95567.82;110234;1242;59760;-69
2023/02/25 10:21:40;;;;;;;;;;;;;;;9.84;73.04;95574.08;110276;1249;59739;-68
2023/02/25 10:24:33;;;;;;;;;;;;;;;9.72;75.19;95579.05;110288;1245;71948;-68
2023/02/25 10:27:20;;;;;;;;;;;;;;;9.64;76.11;95571.29;110205;1242;69835;-69
2023/02/25 10:29:54;;;;;;;;;;;;;;;9.51;78.59;95567.54;110265;1240;69891;-68
2023/02/25 10:32:25;;;;;;;;;;;;;;;9.55;77.84;95559.70;110255;1241;59734;-69
2023/02/25 10:34:56;;;;;;;;;;;;;;;9.54;77.40;95550.59;110242;1240;59670;-67
2023/02/25 10:37:33;;;;;;;;;;;;;;;9.58;76.46;95550.11;110267;1241;71208;-68
2023/02/25 10:40:03;;;;;;;;;;;;;;;9.44;77.52;95557.94;110235;1241;68464;-68
2023/02/25 10:42:32;;;;;;;;;;;;;;;9.33;78.64;95549.52;110266;1242;70032;-69
2023/02/25 10:45:07;;;;;;;;;;;;;;;9.32;78.79;95549.05;110233;1242;59706;-67
2023/02/25 10:47:37;;;;;;;;;;;;;;;9.35;78.83;95548.95;110249;1241;59752;-67
2023/02/25 10:50:20;;;;;;;;;;;;;;;9.34;79.98;95552.66;110203;1243;70082;-67
2023/02/25 10:52:55;;;;;;;;;;;;;;;9.24;81.12;95546.84;110215;1242;69695;-67
2023/02/25 10:55:26;;;;;;;;;;;;;;;9.24;81.13;95521.34;110184;1242;69824;-67
2023/02/25 10:57:56;;;;;;;;;;;;;;;9.16;82.16;95529.77;110258;1241;60287;-67
2023/02/25 11:00:27;;;;;;;;;;;;;;;9.12;82.73;95539.52;110214;1242;59666;-67
2023/02/25 11:03:00;;;;;;;;;;;;;;;9.12;82.75;95550.30;110218;1242;70589;-68
2023/02/25 11:05:32;;;;;;;;;;;;;;;9.12;83.86;95535.53;110250;1242;69963;-68
2023/02/25 11:08:03;;;;;;;;;;;;;;;9.15;84.55;95550.68;110177;1247;69191;-68
2023/02/25 11:10:33;;;;;;;;;;;;;;;9.19;83.80;95553.21;110168;1242;59734;-68
2023/02/25 11:13:04;;;;;;;;;;;;;;;9.18;83.68;95548.69;110194;1242;59685;-67
2023/02/25 11:15:37;;;;;;;;;;;;;;;9.17;84.02;95546.54;110252;1242;72147;-69
2023/02/25 11:18:18;;;;;;;;;;;;;;;9.16;84.32;95549.55;110241;1242;69172;-68
2023/02/25 11:20:52;;;;;;;;;;;;;;;9.23;82.96;95544.54;110285;1243;69967;-68
2023/02/25 11:23:57;;;;;;;;;;;;;;;9.28;82.27;95546.34;110225;1247;59756;-70
2023/02/25 11:26:30;;;;;;;;;;;;;;;9.32;81.51;95518.16;109338;1251;59675;-68
2023/02/25 11:29:01;;;;;;;;;;;;;;;9.34;81.95;95502.27;110124;1241;71369;-70
2023/02/25 11:31:34;;;;;;;;;;;;;;;9.35;82.17;95486.02;110309;1242;69050;-69
2023/02/25 11:34:05;;;;;;;;;;;;;;;9.35;82.39;95490.88;110255;1247;69289;-69
2023/02/25 11:36:36;;;;;;;;;;;;;;;9.34;82.38;95503.45;110288;1244;59750;-69
2023/02/25 11:39:10;;;;;;;;;;;;;;;9.36;82.03;95494.92;110334;1242;59691;-69
2023/02/25 11:41:38;;;;;;;;;;;;;;;9.36;82.06;95488.86;110317;1242;71869;-69
2023/02/25 11:44:27;;;;;;;;;;;;;;;9.47;80.54;95483.08;110216;1242;69225;-69
2023/02/25 11:47:00;;;;;;;;;;;;;;;9.53;80.60;95485.24;110126;1244;69297;-69
2023/02/25 11:49:37;;;;;;;;;;;;;;;9.61;80.35;95490.73;110222;1242;59721;-69
2023/02/25 11:52:14;;;;;;;;;;;;;;;9.78;79.43;95490.10;110209;1242;59670;-69
2023/02/25 11:54:45;;;;;;;;;;;;;;;9.95;78.59;95487.64;110248;1240;72209;-69
2023/02/25 11:57:34;;;;;;;;;;;;;;;10.18;77.85;95492.64;110226;1241;70072;-69
2023/02/25 12:00:18;;;;;;;;;;;;;;;10.34;77.36;95493.20;110255;1242;69220;-67
2023/02/25 12:02:55;;;;;;;;;;;;;;;10.30;77.44;95487.83;110263;1243;59724;-68
2023/02/25 12:05:37;;;;;;;;;;;;;;;10.18;77.70;95486.77;110239;1243;59702;-68
2023/02/25 12:08:08;;;;;;;;;;;;;;;10.13;77.77;95491.61;110207;1242;70642;-66
2023/02/25 12:11:00;;;;;;;;;;;;;;;9.87;78.85;95477.58;110222;1242;69549;-67
2023/02/25 12:13:45;;;;;;;;;;;;;;;9.84;78.23;95491.75;110251;1241;69929;-67
2023/02/25 12:16:43;;;;;;;;;;;;;;;9.74;78.48;95482.52;110262;1242;59804;-69
2023/02/25 12:19:12;;;;;;;;;;;;;;;9.60;79.14;95485.75;110148;1242;59751;-69
2023/02/25 12:21:40;;;;;;;;;;;;;;;9.61;79.45;95490.67;110279;1242;71415;-70
2023/02/25 12:24:28;;;;;;;;;;;;;;;9.47;81.18;95499.05;110230;1241;68813;-68
2023/02/25 12:27:00;;;;;;;;;;;;;;;9.29;83.00;95500.15;110336;1243;69101;-69
2023/02/25 12:29:43;;;;;;;;;;;;;;;9.06;85.39;95509.15;110272;1242;59756;-68
2023/02/25 12:32:29;;;;;;;;;;;;;;;8.82;87.68;95511.70;110287;1242;59700;-68
2023/02/25 12:34:58;;;;;;;;;;;;;;;8.66;88.82;95516.11;110275;1241;71752;-68
2023/02/25 12:37:53;;;;;;;;;;;;;;;8.58;90.32;95524.67;110214;1242;69836;-69
2023/02/25 12:40:27;;;;;;;;;;;;;;;8.54;91.68;95521.59;109883;1240;69801;-68
2023/02/25 12:42:59;;;;;;;;;;;;;;;8.56;91.87;95516.73;110238;1248;59696;-68
2023/02/25 12:45:31;;;;;;;;;;;;;;;8.52;93.33;95502.34;110198;1242;59684;-68
2023/02/25 12:48:22;;;;;;;;;;;;;;;8.55;93.45;95511.83;110281;1242;71236;-68
2023/02/25 12:50:57;;;;;;;;;;;;;;;8.56;94.08;95521.06;110231;1242;69216;-68
2023/02/25 12:53:44;;;;;;;;;;;;;;;8.55;94.39;95524.63;110180;1242;69679;-68
2023/02/25 12:56:31;;;;;;;;;;;;;;;8.54;96.06;95528.75;110244;1242;59711;-68
2023/02/25 12:59:18;;;;;;;;;;;;;;;8.54;95.09;95526.31;110233;1242;59633;-69
2023/02/25 13:01:52;;;;;;;;;;;;;;;8.58;94.54;95528.81;110225;1241;71095;-69
2023/02/25 13:04:39;;;;;;;;;;;;;;;8.63;93.59;95532.69;110221;1241;69077;-67
2023/02/25 13:07:14;;;;;;;;;;;;;;;8.63;94.39;95533.23;110232;1242;69833;-68
2023/02/25 13:09:45;;;;;;;;;;;;;;;8.66;94.13;95532.02;110255;1242;59769;-69
2023/02/25 13:12:32;;;;;;;;;;;;;;;8.66;94.76;95539.05;110267;1242;59728;-69